Huntington, WV

4:24 PM EDT on August 20, 2014 (GMT -0400)
Cabell County EMS HQ | Change Station
CLOSE
Current Station
Personal Weather Station
Location: Huntington, WV
Elevation: 573 ft
Nearby Weather Stations

Elev 573 ft 38.42 °N, 82.44 °W | Updated 7 seconds ago

Partly Cloudy
Partly Cloudy
90.3 °F
Feels Like 98 °F
N
8.0
Wind Variable Wind from SW
Gusts 11.0 mph

Today
High -- | Low -- °F
--% Chance of Precip.
Yesterday
High -- | Low -- °F
Precip. -- in
6:48 AM 8:16 PM
Waning Crescent, 19% visible
Pressure 29.94 in
Visibility 10.0 miles
Clouds Few 5500 ft
Heat Index 98 °F
Dew Point 72 °F
Humidity 56%
Rainfall 0.00 in
Snow Depth Not available.
UV 4.1 out of 12
Pollen 7.60 out of 12
Air Quality Not available.
Flu Activity Not available.
METAR KHTS 201951Z 25007G14KT 10SM FEW055 29/21 A2996 RMK AO2 SLP137 T02940206

More Conditions Fewer Conditions

Pressure 29.94 in
Visibility 10.0 miles
Clouds Few 5500 ft
Heat Index 98 °F
Dew Point 72 °F
Humidity 56%
Rainfall 0.00 in
Snow Depth Not available.
UV 4.1 out of 12
Pollen 7.60 out of 12
Air Quality Not available.
Flu Activity Not available.
METAR KHTS 201951Z 25007G14KT 10SM FEW055 29/21 A2996 RMK AO2 SLP137 T02940206

More Conditions Fewer Conditions

10-Day Weather Forecast

Almanac

Astronomy

Aug. 20, 2014 Rise Set
Actual Time 6:48 AM EDT 8:16 PM EDT
Civil Twilight 6:20 AM EDT 8:44 PM EDT
Nautical Twilight 5:47 AM EDT 9:18 PM EDT
Astronomical Twilight 5:11 AM EDT 9:53 PM EDT
Moon 2:28 AM EDT 4:59 PM EDT
Length of Visible Light 14h 24m
Length of Day
13h 28m
Tomorrow will be 2m 15s shorter.
Waning Crescent, 19% of the Moon is Illuminated
Today
Waning Crescent
Aug 25
New
Sep 2
First Quarter
Sep 8
Full
Sep 15
Last Quarter

Today's Extremes

State Highs State Lows

Community

WunderPhotos

Upload Photos

1,745,750 photos uploaded!

WunderBlogs® & News

By Dr. Jeff Masters
Director of Meteorology, Weather Underground
By Kari Strenfel
Meteorologist, Weather Underground
By Christopher C. Burt
Weather Historian, Weather Underground
August 20, 2014
August 20, 2014
August 20, 2014

Nearby

Snow Depth

Station Depth Elevation
No new snow has been reported.

Earthquake Activity

City Distance Mag. Time & Date
No recent earthquake activity has been reported nearby.
Minimum magnitude displayed is 2.5.

Coastal Water Temperatures

Place Temperature
No Stations Reporting

Nearby Weather Stations